ADDS METAR Data

Data at: 0854 UTC 27 Jun 2017

METAR for:EGLF (Farnborough Arpt, --, UK)
Text:EGLF 270850Z 10007KT CAVOK 17/11 Q1007
Temperature: 17.0°C ( 63°F)
Dewpoint: 11.0°C ( 52°F) [RH = 68%]
Pressure (altimeter):29.73 inches Hg (1007.0 mb)
Winds:from the E (100 degrees) at 8 MPH (7 knots; 3.6 m/s)
Visibility:6 or more sm (10+ km)
Ceiling:ceiling and visibility are OK
Clouds:unknown

TAF for:EGLF (Farnborough Arpt, --, UK) issued at 0803 UTC 27 Jun 2017
Text:TAF EGLF 270803Z 2709/2718 10009KT 9999 SCT045
Forecast period:0900 to 1800 UTC 27 June 2017
Forecast type:FROM: standard forecast or significant change
Winds:from the E (100 degrees) at 10 MPH (9 knots; 4.6 m/s)
Visibility:6 or more sm (10+ km)
Ceiling:at least 12,000 feet AGL
Clouds: scattered clouds at 4500 feet AGL
Text:TEMPO 2709/2718 7000 SHRA
Forecast period:0900 to 1800 UTC 27 June 2017
Forecast type:TEMPORARY: The following changes expected for less than half the time period
Visibility: 4 sm ( 7 km)
Clouds:missing
Weather:SHRA (rain showers)
Text:PROB30
Forecast period:0900 to 1800 UTC 27 June 2017
Forecast type:TEMPORARY: The following changes expected for less than half the time period
Ceiling:1000 feet AGL
Clouds: broken clouds at 1000 feet AGL
Text:TEMPO 2709/2718 BKN010
Forecast period:1000 to 1800 UTC 27 June 2017
Forecast type:TEMPORARY: The following changes expected for less than half the time period
Visibility: 2.49 sm ( 4.01 km)
Clouds:missing
Weather:+SHRA (heavy rain showers)

METAR for:EGUB (Benson(RAF), --, UK)
Text:EGUB 270750Z 10007KT 9999 SCT048 BKN100 BKN250 18/07 Q1007 BLU NOSIG
Temperature: 18.0°C ( 64°F)
Dewpoint: 7.0°C ( 45°F) [RH = 49%]
Pressure (altimeter):29.73 inches Hg (1007.0 mb)
Winds:from the E (100 degrees) at 8 MPH (7 knots; 3.6 m/s)
Visibility:6 or more sm (10+ km)
Ceiling:10000 feet AGL
Clouds: scattered clouds at 4800 feet AGL, broken clouds at 10000 feet AGL, broken clouds at 25000 feet AGL

TAF for:EGUB (Benson(RAF), --, UK) issued at 0749 UTC 27 Jun 2017
Text:TAF EGUB 270749Z 2709/2718 10005KT 9999 BKN035
Forecast period:0900 to 1800 UTC 27 June 2017
Forecast type:FROM: standard forecast or significant change
Winds:from the E (100 degrees) at 6 MPH (5 knots; 2.6 m/s)
Visibility:6 or more sm (10+ km)
Ceiling:3500 feet AGL
Clouds: broken clouds at 3500 feet AGL
Text:TEMPO 2713/2718 6000 RA BKN018
Forecast period:1300 to 1800 UTC 27 June 2017
Forecast type:TEMPORARY: The following changes expected for less than half the time period
Visibility: 4 sm ( 6 km)
Ceiling:1800 feet AGL
Clouds: broken clouds at 1800 feet AGL
Weather:RA (moderate rain)
Text:PROB30
Forecast period:1400 to 1800 UTC 27 June 2017
Forecast type:TEMPORARY: The following changes expected for less than half the time period
Visibility: 2.49 sm ( 4.01 km)
Ceiling:3000 feet AGL
Clouds: scattered clouds at 1200 feet AGL, broken clouds at 3000 feet AGL
Weather:+TSRA (heavy rain associated with thunderstorm(s))

METAR for:EGVO (Odiham(RAF), --, UK)
Text:EGVO 270750Z 11007KT 9999 OVC042 15/10 Q1007 BLU NOSIG
Temperature: 15.0°C ( 59°F)
Dewpoint: 10.0°C ( 50°F) [RH = 72%]
Pressure (altimeter):29.73 inches Hg (1007.0 mb)
Winds:from the ESE (110 degrees) at 8 MPH (7 knots; 3.6 m/s)
Visibility:6 or more sm (10+ km)
Ceiling:4200 feet AGL
Clouds: overcast cloud deck at 4200 feet AGL

TAF for:EGVO (Odiham(RAF), --, UK) issued at 0721 UTC 27 Jun 2017
Text:TAF EGVO 270721Z 2709/2721 13008KT 9999 BKN040
Forecast period:0900 to 1200 UTC 27 June 2017
Forecast type:FROM: standard forecast or significant change
Winds:from the SE (130 degrees) at 9 MPH (8 knots; 4.1 m/s)
Visibility:6 or more sm (10+ km)
Ceiling:4000 feet AGL
Clouds: broken clouds at 4000 feet AGL
Text:BECMG 2712/2715 BKN020
Forecast period:1200 to 2100 UTC 27 June 2017
Forecast type:BECOMING: Conditions expected to become as follows by 1500 UTC 27 June 2017
Winds:from the SE (130 degrees) at 9 MPH (8 knots; 4.1 m/s)
Visibility:6 or more sm (10+ km)
Ceiling:2000 feet AGL
Clouds: broken clouds at 2000 feet AGL
Text:TEMPO 2712/2721 7000 SHRA
Forecast period:1200 to 2100 UTC 27 June 2017
Forecast type:TEMPORARY: The following changes expected for less than half the time period
Visibility: 4 sm ( 7 km)
Clouds:missing
Weather:SHRA (rain showers)
Text:PROB30
Forecast period:1200 to 2100 UTC 27 June 2017
Forecast type:TEMPORARY: The following changes expected for less than half the time period
Visibility: 2.49 sm ( 4.01 km)
Ceiling:1000 feet AGL
Clouds: broken clouds at 1000 feet AGL, broken clouds at 4000 feet AGL
Weather:+SHRA (heavy rain showers)

METAR for:EGTK (Oxford Arpt, --, UK)
Text:EGTK 270850Z 14006KT 9999 OVC047 18/10 Q1007
Temperature: 18.0°C ( 64°F)
Dewpoint: 10.0°C ( 50°F) [RH = 59%]
Pressure (altimeter):29.73 inches Hg (1007.0 mb)
Winds:from the SE (140 degrees) at 7 MPH (6 knots; 3.1 m/s)
Visibility:6 or more sm (10+ km)
Ceiling:4700 feet AGL
Clouds: overcast cloud deck at 4700 feet AGL

TAF for:EGTK (Oxford Arpt, --, UK) issued at 0802 UTC 27 Jun 2017
Text:TAF EGTK 270802Z 2709/2718 06008KT 9999 SCT045
Forecast period:0900 to 1800 UTC 27 June 2017
Forecast type:FROM: standard forecast or significant change
Winds:from the ENE (60 degrees) at 9 MPH (8 knots; 4.1 m/s)
Visibility:6 or more sm (10+ km)
Ceiling:at least 12,000 feet AGL
Clouds: scattered clouds at 4500 feet AGL
Text:TEMPO 2712/2718 6000 SHRA BKN012
Forecast period:1200 to 1800 UTC 27 June 2017
Forecast type:TEMPORARY: The following changes expected for less than half the time period
Visibility: 4 sm ( 6 km)
Ceiling:1200 feet AGL
Clouds: broken clouds at 1200 feet AGL
Weather:SHRA (rain showers)
Text:PROB30
Forecast period:1300 to 1800 UTC 27 June 2017
Forecast type:TEMPORARY: The following changes expected for less than half the time period
Visibility: 1.86 sm ( 2.99 km)
Ceiling:800 feet AGL
Clouds: broken clouds at 800 feet AGL
Weather:+TSRA (heavy rain associated with thunderstorm(s))

METAR for:EGHH (Bournemouth Intl, --, UK)
Text:EGHH 270820Z 14008KT 090V160 9999 BKN044 19/12 Q1006
Temperature: 19.0°C ( 66°F)
Dewpoint: 12.0°C ( 54°F) [RH = 64%]
Pressure (altimeter):29.70 inches Hg (1006.0 mb)
Winds:from the SE (140 degrees) at 9 MPH (8 knots; 4.1 m/s)
Visibility:6 or more sm (10+ km)
Ceiling:4400 feet AGL
Clouds: broken clouds at 4400 feet AGL

TAF for:EGHH (Bournemouth Intl, --, UK) issued at 0802 UTC 27 Jun 2017
Text:TAF EGHH 270802Z 2709/2718 12005KT 9999 SCT040
Forecast period:0900 to 1800 UTC 27 June 2017
Forecast type:FROM: standard forecast or significant change
Winds:from the ESE (120 degrees) at 6 MPH (5 knots; 2.6 m/s)
Visibility:6 or more sm (10+ km)
Ceiling:at least 12,000 feet AGL
Clouds: scattered clouds at 4000 feet AGL
Text:TEMPO 2710/2718 6000 SHRA BKN012
Forecast period:1000 to 1800 UTC 27 June 2017
Forecast type:TEMPORARY: The following changes expected for less than half the time period
Visibility: 4 sm ( 6 km)
Ceiling:1200 feet AGL
Clouds: broken clouds at 1200 feet AGL
Weather:SHRA (rain showers)
Text:PROB30
Forecast period:1100 to 1800 UTC 27 June 2017
Forecast type:TEMPORARY: The following changes expected for less than half the time period
Visibility: 1.86 sm ( 2.99 km)
Ceiling:800 feet AGL
Clouds: broken clouds at 800 feet AGL
Weather:+TSRA (heavy rain associated with thunderstorm(s))

METAR for:
Text:No data found

TAF for:
Text:No data found